Terminal Aerodrome Forecast
Issued by NWS

Home | Current Version | Previous Version | Text Only | Print | Product List | Glossary On
Versions: 1 2 3 4 5 6 7 8 9 10 11 12 13
000
FTUS45 KABQ 172300
TAFSAF
TAF
KSAF 172326Z 1800/1824 29016G26KT P6SM BKN070
     FM180300 34006KT P6SM BKN060
     FM180900 31006KT P6SM VCSH OVC030
     FM181700 30012G22KT P6SM BKN040
     FM182100 31016G28KT P6SM BKN070=

USA.gov is the U.S. government's official web portal to all federal, state and local government web resources and services.